sensor_id;sensor_type;location;lat;lon;timestamp;P1;durP1;ratioP1;P2;durP2;ratioP2
80983;SDS011;73733;53.046;8.724;2023-11-18T00:01:51;3.35;;;2.10;;
80983;SDS011;73733;53.046;8.724;2023-11-18T00:04:16;3.97;;;2.70;;
80983;SDS011;73733;53.046;8.724;2023-11-18T00:06:42;4.00;;;2.53;;
80983;SDS011;73733;53.046;8.724;2023-11-18T00:09:11;4.30;;;2.40;;
80983;SDS011;73733;53.046;8.724;2023-11-18T00:11:42;2.75;;;2.33;;
80983;SDS011;73733;53.046;8.724;2023-11-18T00:14:07;3.72;;;2.70;;
80983;SDS011;73733;53.046;8.724;2023-11-18T00:16:33;3.55;;;2.70;;
80983;SDS011;73733;53.046;8.724;2023-11-18T00:18:59;7.10;;;3.50;;
80983;SDS011;73733;53.046;8.724;2023-11-18T00:21:25;3.47;;;2.47;;
80983;SDS011;73733;53.046;8.724;2023-11-18T00:23:50;3.35;;;2.42;;
80983;SDS011;73733;53.046;8.724;2023-11-18T00:26:16;4.07;;;2.38;;
80983;SDS011;73733;53.046;8.724;2023-11-18T00:28:41;3.70;;;2.63;;
80983;SDS011;73733;53.046;8.724;2023-11-18T00:31:07;3.70;;;2.43;;
80983;SDS011;73733;53.046;8.724;2023-11-18T00:33:32;4.57;;;2.50;;
80983;SDS011;73733;53.046;8.724;2023-11-18T00:35:58;4.10;;;2.47;;
80983;SDS011;73733;53.046;8.724;2023-11-18T00:38:25;3.65;;;2.35;;
80983;SDS011;73733;53.046;8.724;2023-11-18T00:40:50;4.55;;;2.50;;
80983;SDS011;73733;53.046;8.724;2023-11-18T00:43:16;3.80;;;2.40;;
80983;SDS011;73733;53.046;8.724;2023-11-18T00:45:41;4.65;;;3.00;;
80983;SDS011;73733;53.046;8.724;2023-11-18T00:48:08;3.70;;;2.55;;
80983;SDS011;73733;53.046;8.724;2023-11-18T00:50:34;3.08;;;2.55;;
80983;SDS011;73733;53.046;8.724;2023-11-18T00:52:59;4.60;;;2.57;;
80983;SDS011;73733;53.046;8.724;2023-11-18T00:55:24;4.30;;;2.53;;
80983;SDS011;73733;53.046;8.724;2023-11-18T00:57:50;3.67;;;2.67;;
80983;SDS011;73733;53.046;8.724;2023-11-18T01:00:15;4.50;;;2.90;;
80983;SDS011;73733;53.046;8.724;2023-11-18T01:02:51;4.22;;;2.75;;
80983;SDS011;73733;53.046;8.724;2023-11-18T01:05:18;4.63;;;2.65;;
80983;SDS011;73733;53.046;8.724;2023-11-18T01:07:43;3.42;;;2.53;;
80983;SDS011;73733;53.046;8.724;2023-11-18T01:10:09;3.72;;;2.42;;
80983;SDS011;73733;53.046;8.724;2023-11-18T01:12:35;3.78;;;2.60;;
80983;SDS011;73733;53.046;8.724;2023-11-18T01:15:00;6.00;;;2.92;;
80983;SDS011;73733;53.046;8.724;2023-11-18T01:17:26;3.80;;;2.50;;
80983;SDS011;73733;53.046;8.724;2023-11-18T01:19:51;3.97;;;2.67;;
80983;SDS011;73733;53.046;8.724;2023-11-18T01:22:16;4.70;;;3.45;;
80983;SDS011;73733;53.046;8.724;2023-11-18T01:24:43;3.55;;;2.78;;
80983;SDS011;73733;53.046;8.724;2023-11-18T01:27:09;4.25;;;2.90;;
80983;SDS011;73733;53.046;8.724;2023-11-18T01:29:35;4.07;;;2.72;;
80983;SDS011;73733;53.046;8.724;2023-11-18T01:32:00;3.53;;;2.42;;
80983;SDS011;73733;53.046;8.724;2023-11-18T01:34:26;4.00;;;2.80;;
80983;SDS011;73733;53.046;8.724;2023-11-18T01:36:53;4.32;;;2.80;;
80983;SDS011;73733;53.046;8.724;2023-11-18T01:39:18;4.20;;;2.87;;
80983;SDS011;73733;53.046;8.724;2023-11-18T01:41:44;3.60;;;2.58;;
80983;SDS011;73733;53.046;8.724;2023-11-18T01:44:10;3.72;;;2.75;;
80983;SDS011;73733;53.046;8.724;2023-11-18T01:46:35;4.32;;;2.92;;
80983;SDS011;73733;53.046;8.724;2023-11-18T01:49:02;3.67;;;2.85;;
80983;SDS011;73733;53.046;8.724;2023-11-18T01:51:29;7.35;;;3.13;;
80983;SDS011;73733;53.046;8.724;2023-11-18T01:53:54;5.10;;;2.85;;
80983;SDS011;73733;53.046;8.724;2023-11-18T01:56:20;4.78;;;2.60;;
80983;SDS011;73733;53.046;8.724;2023-11-18T01:58:50;3.40;;;2.38;;
80983;SDS011;73733;53.046;8.724;2023-11-18T02:01:15;3.35;;;2.53;;
80983;SDS011;73733;53.046;8.724;2023-11-18T02:03:42;3.83;;;2.90;;
80983;SDS011;73733;53.046;8.724;2023-11-18T02:06:08;3.08;;;2.22;;
80983;SDS011;73733;53.046;8.724;2023-11-18T02:08:35;2.90;;;2.08;;
80983;SDS011;73733;53.046;8.724;2023-11-18T02:11:48;3.47;;;2.15;;
80983;SDS011;73733;53.046;8.724;2023-11-18T02:13:54;3.85;;;2.35;;
80983;SDS011;73733;53.046;8.724;2023-11-18T02:16:21;4.95;;;3.00;;
80983;SDS011;73733;53.046;8.724;2023-11-18T02:18:48;5.57;;;2.38;;
80983;SDS011;73733;53.046;8.724;2023-11-18T02:21:14;4.05;;;2.10;;
80983;SDS011;73733;53.046;8.724;2023-11-18T02:23:40;3.70;;;1.92;;
80983;SDS011;73733;53.046;8.724;2023-11-18T02:26:07;3.78;;;2.22;;
80983;SDS011;73733;53.046;8.724;2023-11-18T02:28:33;3.55;;;2.20;;
80983;SDS011;73733;53.046;8.724;2023-11-18T02:31:03;3.63;;;2.27;;
80983;SDS011;73733;53.046;8.724;2023-11-18T02:33:33;3.65;;;2.33;;
80983;SDS011;73733;53.046;8.724;2023-11-18T02:36:06;6.70;;;2.50;;
80983;SDS011;73733;53.046;8.724;2023-11-18T02:38:52;3.83;;;2.20;;
80983;SDS011;73733;53.046;8.724;2023-11-18T02:41:20;6.40;;;2.70;;
80983;SDS011;73733;53.046;8.724;2023-11-18T02:43:45;3.40;;;2.15;;
80983;SDS011;73733;53.046;8.724;2023-11-18T02:46:12;3.33;;;1.98;;
80983;SDS011;73733;53.046;8.724;2023-11-18T02:48:40;3.38;;;2.30;;
80983;SDS011;73733;53.046;8.724;2023-11-18T02:51:06;3.97;;;2.42;;
80983;SDS011;73733;53.046;8.724;2023-11-18T02:53:33;2.78;;;1.80;;
80983;SDS011;73733;53.046;8.724;2023-11-18T02:55:59;3.67;;;2.50;;
80983;SDS011;73733;53.046;8.724;2023-11-18T02:58:28;4.47;;;2.20;;
80983;SDS011;73733;53.046;8.724;2023-11-18T03:00:54;3.33;;;1.90;;
80983;SDS011;73733;53.046;8.724;2023-11-18T03:03:19;3.37;;;2.30;;
80983;SDS011;73733;53.046;8.724;2023-11-18T03:05:45;3.30;;;2.20;;
80983;SDS011;73733;53.046;8.724;2023-11-18T03:08:13;3.05;;;2.00;;
80983;SDS011;73733;53.046;8.724;2023-11-18T03:10:39;3.03;;;2.17;;
80983;SDS011;73733;53.046;8.724;2023-11-18T03:13:05;2.92;;;1.83;;
80983;SDS011;73733;53.046;8.724;2023-11-18T03:15:31;2.60;;;1.90;;
80983;SDS011;73733;53.046;8.724;2023-11-18T03:17:57;2.88;;;2.15;;
80983;SDS011;73733;53.046;8.724;2023-11-18T03:20:22;3.00;;;2.10;;
80983;SDS011;73733;53.046;8.724;2023-11-18T03:22:48;3.10;;;1.98;;
80983;SDS011;73733;53.046;8.724;2023-11-18T03:25:15;4.30;;;2.58;;
80983;SDS011;73733;53.046;8.724;2023-11-18T03:27:41;4.22;;;2.25;;
80983;SDS011;73733;53.046;8.724;2023-11-18T03:30:07;3.55;;;2.10;;
80983;SDS011;73733;53.046;8.724;2023-11-18T03:32:33;4.68;;;2.20;;
80983;SDS011;73733;53.046;8.724;2023-11-18T03:35:02;5.07;;;2.70;;
80983;SDS011;73733;53.046;8.724;2023-11-18T03:37:35;4.32;;;2.60;;
80983;SDS011;73733;53.046;8.724;2023-11-18T03:40:03;3.50;;;2.30;;
80983;SDS011;73733;53.046;8.724;2023-11-18T03:42:32;3.92;;;2.65;;
80983;SDS011;73733;53.046;8.724;2023-11-18T03:44:58;4.07;;;2.77;;
80983;SDS011;73733;53.046;8.724;2023-11-18T03:47:23;4.27;;;2.73;;
80983;SDS011;73733;53.046;8.724;2023-11-18T03:49:49;3.70;;;2.70;;
80983;SDS011;73733;53.046;8.724;2023-11-18T03:52:15;3.83;;;2.78;;
80983;SDS011;73733;53.046;8.724;2023-11-18T03:54:40;3.90;;;2.97;;
80983;SDS011;73733;53.046;8.724;2023-11-18T03:57:06;4.00;;;2.72;;
80983;SDS011;73733;53.046;8.724;2023-11-18T03:59:32;4.63;;;3.17;;
80983;SDS011;73733;53.046;8.724;2023-11-18T04:01:57;4.47;;;2.77;;
80983;SDS011;73733;53.046;8.724;2023-11-18T04:04:22;5.30;;;3.13;;
80983;SDS011;73733;53.046;8.724;2023-11-18T04:06:48;5.40;;;3.30;;
80983;SDS011;73733;53.046;8.724;2023-11-18T04:09:13;5.97;;;3.53;;
80983;SDS011;73733;53.046;8.724;2023-11-18T04:11:39;4.80;;;3.22;;
80983;SDS011;73733;53.046;8.724;2023-11-18T04:14:05;6.07;;;4.03;;
80983;SDS011;73733;53.046;8.724;2023-11-18T04:16:30;4.77;;;3.27;;
80983;SDS011;73733;53.046;8.724;2023-11-18T04:18:55;4.87;;;3.20;;
80983;SDS011;73733;53.046;8.724;2023-11-18T04:21:21;4.77;;;3.80;;
80983;SDS011;73733;53.046;8.724;2023-11-18T04:23:46;5.72;;;3.60;;
80983;SDS011;73733;53.046;8.724;2023-11-18T04:26:12;5.27;;;3.73;;
80983;SDS011;73733;53.046;8.724;2023-11-18T04:28:37;6.28;;;3.80;;
80983;SDS011;73733;53.046;8.724;2023-11-18T04:31:04;5.28;;;3.50;;
80983;SDS011;73733;53.046;8.724;2023-11-18T04:33:30;5.82;;;3.53;;
80983;SDS011;73733;53.046;8.724;2023-11-18T04:35:55;5.22;;;3.90;;
80983;SDS011;73733;53.046;8.724;2023-11-18T04:38:24;6.63;;;3.88;;
80983;SDS011;73733;53.046;8.724;2023-11-18T04:40:51;6.03;;;3.88;;
80983;SDS011;73733;53.046;8.724;2023-11-18T04:43:20;6.30;;;4.28;;
80983;SDS011;73733;53.046;8.724;2023-11-18T04:45:45;6.28;;;4.45;;
80983;SDS011;73733;53.046;8.724;2023-11-18T04:48:11;6.82;;;4.30;;
80983;SDS011;73733;53.046;8.724;2023-11-18T04:50:38;5.53;;;4.65;;
80983;SDS011;73733;53.046;8.724;2023-11-18T04:53:04;7.07;;;4.10;;
80983;SDS011;73733;53.046;8.724;2023-11-18T04:55:33;6.60;;;4.75;;
80983;SDS011;73733;53.046;8.724;2023-11-18T04:57:58;6.38;;;4.40;;
80983;SDS011;73733;53.046;8.724;2023-11-18T05:00:23;5.93;;;4.23;;
80983;SDS011;73733;53.046;8.724;2023-11-18T05:02:49;6.30;;;4.10;;
80983;SDS011;73733;53.046;8.724;2023-11-18T05:05:15;6.43;;;4.13;;
80983;SDS011;73733;53.046;8.724;2023-11-18T05:07:41;6.53;;;4.22;;
80983;SDS011;73733;53.046;8.724;2023-11-18T05:10:07;6.55;;;4.40;;
80983;SDS011;73733;53.046;8.724;2023-11-18T05:12:33;6.30;;;4.93;;
80983;SDS011;73733;53.046;8.724;2023-11-18T05:14:59;7.20;;;5.03;;
80983;SDS011;73733;53.046;8.724;2023-11-18T05:17:25;6.75;;;4.50;;
80983;SDS011;73733;53.046;8.724;2023-11-18T05:19:51;6.25;;;3.95;;
80983;SDS011;73733;53.046;8.724;2023-11-18T05:22:17;7.38;;;3.95;;
80983;SDS011;73733;53.046;8.724;2023-11-18T05:24:43;6.23;;;4.13;;
80983;SDS011;73733;53.046;8.724;2023-11-18T05:27:08;6.57;;;4.55;;
80983;SDS011;73733;53.046;8.724;2023-11-18T05:29:34;7.93;;;5.10;;
80983;SDS011;73733;53.046;8.724;2023-11-18T05:31:59;9.73;;;5.13;;
80983;SDS011;73733;53.046;8.724;2023-11-18T05:34:24;6.90;;;4.33;;
80983;SDS011;73733;53.046;8.724;2023-11-18T05:36:50;6.13;;;4.17;;
80983;SDS011;73733;53.046;8.724;2023-11-18T05:39:19;6.28;;;4.40;;
80983;SDS011;73733;53.046;8.724;2023-11-18T05:41:45;7.70;;;4.57;;
80983;SDS011;73733;53.046;8.724;2023-11-18T05:44:14;8.80;;;5.13;;
80983;SDS011;73733;53.046;8.724;2023-11-18T05:46:44;8.23;;;5.38;;
80983;SDS011;73733;53.046;8.724;2023-11-18T05:49:12;6.63;;;4.22;;
80983;SDS011;73733;53.046;8.724;2023-11-18T05:51:38;8.20;;;5.30;;
80983;SDS011;73733;53.046;8.724;2023-11-18T05:54:05;7.75;;;4.68;;
80983;SDS011;73733;53.046;8.724;2023-11-18T05:56:31;7.65;;;4.90;;
80983;SDS011;73733;53.046;8.724;2023-11-18T05:58:56;7.80;;;4.80;;
80983;SDS011;73733;53.046;8.724;2023-11-18T06:01:22;7.10;;;4.53;;
80983;SDS011;73733;53.046;8.724;2023-11-18T06:03:47;7.85;;;4.90;;
80983;SDS011;73733;53.046;8.724;2023-11-18T06:06:14;8.23;;;5.07;;
80983;SDS011;73733;53.046;8.724;2023-11-18T06:08:41;7.38;;;4.95;;
80983;SDS011;73733;53.046;8.724;2023-11-18T06:11:08;6.13;;;4.47;;
80983;SDS011;73733;53.046;8.724;2023-11-18T06:13:40;7.88;;;5.22;;
80983;SDS011;73733;53.046;8.724;2023-11-18T06:18:40;8.52;;;5.25;;
80983;SDS011;73733;53.046;8.724;2023-11-18T06:21:07;8.70;;;4.72;;
80983;SDS011;73733;53.046;8.724;2023-11-18T06:23:38;7.22;;;4.93;;
80983;SDS011;73733;53.046;8.724;2023-11-18T06:26:03;7.95;;;5.10;;
80983;SDS011;73733;53.046;8.724;2023-11-18T06:28:29;8.65;;;5.30;;
80983;SDS011;73733;53.046;8.724;2023-11-18T06:30:54;8.73;;;5.20;;
80983;SDS011;73733;53.046;8.724;2023-11-18T06:33:20;8.70;;;5.55;;
80983;SDS011;73733;53.046;8.724;2023-11-18T06:35:48;8.93;;;5.38;;
80983;SDS011;73733;53.046;8.724;2023-11-18T06:38:13;10.82;;;6.43;;
80983;SDS011;73733;53.046;8.724;2023-11-18T06:40:40;9.30;;;6.25;;
80983;SDS011;73733;53.046;8.724;2023-11-18T06:43:05;9.73;;;5.88;;
80983;SDS011;73733;53.046;8.724;2023-11-18T06:45:36;8.18;;;5.32;;
80983;SDS011;73733;53.046;8.724;2023-11-18T06:48:02;10.32;;;5.90;;
80983;SDS011;73733;53.046;8.724;2023-11-18T06:50:30;9.98;;;5.75;;
80983;SDS011;73733;53.046;8.724;2023-11-18T06:52:56;11.10;;;6.82;;
80983;SDS011;73733;53.046;8.724;2023-11-18T06:55:22;11.38;;;6.43;;
80983;SDS011;73733;53.046;8.724;2023-11-18T06:57:47;9.20;;;6.37;;
80983;SDS011;73733;53.046;8.724;2023-11-18T07:00:13;8.90;;;5.70;;
80983;SDS011;73733;53.046;8.724;2023-11-18T07:02:39;8.15;;;5.30;;
80983;SDS011;73733;53.046;8.724;2023-11-18T07:05:05;10.55;;;5.88;;
80983;SDS011;73733;53.046;8.724;2023-11-18T07:07:31;11.55;;;6.45;;
80983;SDS011;73733;53.046;8.724;2023-11-18T07:09:57;11.77;;;6.88;;
80983;SDS011;73733;53.046;8.724;2023-11-18T07:12:22;8.52;;;5.50;;
80983;SDS011;73733;53.046;8.724;2023-11-18T07:14:48;11.18;;;6.38;;
80983;SDS011;73733;53.046;8.724;2023-11-18T07:17:13;12.48;;;6.97;;
80983;SDS011;73733;53.046;8.724;2023-11-18T07:19:39;13.80;;;7.13;;
80983;SDS011;73733;53.046;8.724;2023-11-18T07:22:05;13.45;;;7.95;;
80983;SDS011;73733;53.046;8.724;2023-11-18T07:24:31;11.00;;;6.60;;
80983;SDS011;73733;53.046;8.724;2023-11-18T07:26:57;11.80;;;7.68;;
80983;SDS011;73733;53.046;8.724;2023-11-18T07:29:24;11.98;;;7.07;;
80983;SDS011;73733;53.046;8.724;2023-11-18T07:31:50;12.90;;;7.35;;
80983;SDS011;73733;53.046;8.724;2023-11-18T07:34:15;14.57;;;7.90;;
80983;SDS011;73733;53.046;8.724;2023-11-18T07:36:40;12.27;;;6.80;;
80983;SDS011;73733;53.046;8.724;2023-11-18T07:39:06;13.52;;;7.70;;
80983;SDS011;73733;53.046;8.724;2023-11-18T07:41:40;14.38;;;9.00;;
80983;SDS011;73733;53.046;8.724;2023-11-18T07:44:05;10.70;;;6.15;;
80983;SDS011;73733;53.046;8.724;2023-11-18T07:46:31;14.85;;;8.13;;
80983;SDS011;73733;53.046;8.724;2023-11-18T07:48:56;12.60;;;7.90;;
80983;SDS011;73733;53.046;8.724;2023-11-18T07:51:22;14.45;;;7.82;;
80983;SDS011;73733;53.046;8.724;2023-11-18T07:53:49;14.57;;;7.38;;
80983;SDS011;73733;53.046;8.724;2023-11-18T07:56:15;15.98;;;8.45;;
80983;SDS011;73733;53.046;8.724;2023-11-18T07:58:42;14.32;;;7.47;;
80983;SDS011;73733;53.046;8.724;2023-11-18T08:01:10;15.85;;;9.95;;
80983;SDS011;73733;53.046;8.724;2023-11-18T08:03:41;14.13;;;7.85;;
80983;SDS011;73733;53.046;8.724;2023-11-18T08:06:07;13.77;;;7.75;;
80983;SDS011;73733;53.046;8.724;2023-11-18T08:08:33;14.60;;;7.68;;
80983;SDS011;73733;53.046;8.724;2023-11-18T08:10:59;14.77;;;8.00;;
80983;SDS011;73733;53.046;8.724;2023-11-18T08:13:25;12.20;;;7.78;;
80983;SDS011;73733;53.046;8.724;2023-11-18T08:15:51;14.05;;;7.78;;
80983;SDS011;73733;53.046;8.724;2023-11-18T08:18:17;12.80;;;8.00;;
80983;SDS011;73733;53.046;8.724;2023-11-18T08:20:43;15.23;;;8.15;;
80983;SDS011;73733;53.046;8.724;2023-11-18T08:23:08;13.90;;;8.07;;
80983;SDS011;73733;53.046;8.724;2023-11-18T08:25:34;13.40;;;7.20;;
80983;SDS011;73733;53.046;8.724;2023-11-18T08:28:00;15.18;;;7.57;;
80983;SDS011;73733;53.046;8.724;2023-11-18T08:30:26;11.18;;;7.22;;
80983;SDS011;73733;53.046;8.724;2023-11-18T08:32:51;11.35;;;7.05;;
80983;SDS011;73733;53.046;8.724;2023-11-18T08:35:17;13.32;;;7.18;;
80983;SDS011;73733;53.046;8.724;2023-11-18T08:37:43;12.18;;;7.45;;
80983;SDS011;73733;53.046;8.724;2023-11-18T08:40:09;14.45;;;7.82;;
80983;SDS011;73733;53.046;8.724;2023-11-18T08:42:44;18.08;;;9.45;;
80983;SDS011;73733;53.046;8.724;2023-11-18T08:45:18;15.82;;;8.63;;
80983;SDS011;73733;53.046;8.724;2023-11-18T08:47:46;13.27;;;7.18;;
80983;SDS011;73733;53.046;8.724;2023-11-18T08:50:13;18.52;;;12.65;;
80983;SDS011;73733;53.046;8.724;2023-11-18T08:52:39;57.42;;;35.33;;
80983;SDS011;73733;53.046;8.724;2023-11-18T08:55:09;14.98;;;8.60;;
80983;SDS011;73733;53.046;8.724;2023-11-18T08:57:43;16.38;;;8.90;;
80983;SDS011;73733;53.046;8.724;2023-11-18T09:00:24;14.25;;;8.40;;
80983;SDS011;73733;53.046;8.724;2023-11-18T09:03:13;13.05;;;7.63;;
80983;SDS011;73733;53.046;8.724;2023-11-18T09:05:46;9.75;;;6.43;;
80983;SDS011;73733;53.046;8.724;2023-11-18T09:08:24;12.00;;;7.05;;
80983;SDS011;73733;53.046;8.724;2023-11-18T09:10:55;14.43;;;7.78;;
80983;SDS011;73733;53.046;8.724;2023-11-18T09:13:23;11.10;;;6.43;;
80983;SDS011;73733;53.046;8.724;2023-11-18T09:15:54;14.38;;;7.65;;
80983;SDS011;73733;53.046;8.724;2023-11-18T09:18:21;12.75;;;7.70;;
80983;SDS011;73733;53.046;8.724;2023-11-18T09:20:46;13.80;;;8.25;;
80983;SDS011;73733;53.046;8.724;2023-11-18T09:23:12;12.73;;;7.35;;
80983;SDS011;73733;53.046;8.724;2023-11-18T09:25:38;12.48;;;7.38;;
80983;SDS011;73733;53.046;8.724;2023-11-18T09:28:05;13.15;;;7.90;;
80983;SDS011;73733;53.046;8.724;2023-11-18T09:30:31;12.95;;;7.93;;
80983;SDS011;73733;53.046;8.724;2023-11-18T09:32:59;12.50;;;7.30;;
80983;SDS011;73733;53.046;8.724;2023-11-18T09:35:27;11.65;;;7.47;;
80983;SDS011;73733;53.046;8.724;2023-11-18T09:37:53;11.65;;;7.60;;
80983;SDS011;73733;53.046;8.724;2023-11-18T09:40:18;10.37;;;7.13;;
80983;SDS011;73733;53.046;8.724;2023-11-18T09:42:49;12.23;;;7.38;;
80983;SDS011;73733;53.046;8.724;2023-11-18T09:45:16;11.18;;;7.32;;
80983;SDS011;73733;53.046;8.724;2023-11-18T09:47:44;9.60;;;6.22;;
80983;SDS011;73733;53.046;8.724;2023-11-18T09:50:12;11.23;;;6.70;;
80983;SDS011;73733;53.046;8.724;2023-11-18T09:52:46;10.15;;;6.38;;
80983;SDS011;73733;53.046;8.724;2023-11-18T09:55:21;12.70;;;7.40;;
80983;SDS011;73733;53.046;8.724;2023-11-18T09:57:52;10.02;;;6.32;;
80983;SDS011;73733;53.046;8.724;2023-11-18T10:00:22;9.70;;;6.30;;
80983;SDS011;73733;53.046;8.724;2023-11-18T10:02:54;12.15;;;6.82;;
80983;SDS011;73733;53.046;8.724;2023-11-18T10:05:22;12.40;;;7.40;;
80983;SDS011;73733;53.046;8.724;2023-11-18T10:07:51;10.88;;;6.38;;
80983;SDS011;73733;53.046;8.724;2023-11-18T10:10:16;10.98;;;7.07;;
80983;SDS011;73733;53.046;8.724;2023-11-18T10:12:45;14.55;;;8.05;;
80983;SDS011;73733;53.046;8.724;2023-11-18T10:15:17;20.40;;;13.02;;
80983;SDS011;73733;53.046;8.724;2023-11-18T10:17:43;29.27;;;19.42;;
80983;SDS011;73733;53.046;8.724;2023-11-18T10:20:20;11.68;;;7.38;;
80983;SDS011;73733;53.046;8.724;2023-11-18T10:22:50;13.32;;;8.23;;
80983;SDS011;73733;53.046;8.724;2023-11-18T10:25:30;14.52;;;7.75;;
80983;SDS011;73733;53.046;8.724;2023-11-18T10:27:55;11.73;;;7.43;;
80983;SDS011;73733;53.046;8.724;2023-11-18T10:30:22;13.82;;;7.53;;
80983;SDS011;73733;53.046;8.724;2023-11-18T10:32:58;13.40;;;7.32;;
80983;SDS011;73733;53.046;8.724;2023-11-18T10:35:50;11.23;;;6.18;;
80983;SDS011;73733;53.046;8.724;2023-11-18T10:38:16;13.10;;;7.65;;
80983;SDS011;73733;53.046;8.724;2023-11-18T10:40:42;14.30;;;8.35;;
80983;SDS011;73733;53.046;8.724;2023-11-18T10:43:09;13.25;;;7.22;;
80983;SDS011;73733;53.046;8.724;2023-11-18T10:45:35;11.50;;;7.75;;
80983;SDS011;73733;53.046;8.724;2023-11-18T10:48:07;11.35;;;6.80;;
80983;SDS011;73733;53.046;8.724;2023-11-18T10:50:32;14.25;;;8.05;;
80983;SDS011;73733;53.046;8.724;2023-11-18T10:52:59;13.45;;;8.32;;
80983;SDS011;73733;53.046;8.724;2023-11-18T10:55:34;13.80;;;8.48;;
80983;SDS011;73733;53.046;8.724;2023-11-18T10:58:02;13.20;;;8.23;;
80983;SDS011;73733;53.046;8.724;2023-11-18T11:00:29;12.68;;;7.20;;
80983;SDS011;73733;53.046;8.724;2023-11-18T11:03:09;13.23;;;7.72;;
80983;SDS011;73733;53.046;8.724;2023-11-18T11:05:39;14.57;;;7.88;;
80983;SDS011;73733;53.046;8.724;2023-11-18T11:10:33;12.00;;;6.90;;
80983;SDS011;73733;53.046;8.724;2023-11-18T11:13:00;12.10;;;7.82;;
80983;SDS011;73733;53.046;8.724;2023-11-18T11:15:30;15.93;;;8.32;;
80983;SDS011;73733;53.046;8.724;2023-11-18T11:17:58;11.85;;;5.70;;
80983;SDS011;73733;53.046;8.724;2023-11-18T11:20:34;12.57;;;7.72;;
80983;SDS011;73733;53.046;8.724;2023-11-18T11:26:07;14.35;;;8.15;;
80983;SDS011;73733;53.046;8.724;2023-11-18T11:31:30;21.60;;;12.25;;
80983;SDS011;73733;53.046;8.724;2023-11-18T11:34:06;17.05;;;8.85;;
80983;SDS011;73733;53.046;8.724;2023-11-18T11:36:42;14.90;;;8.40;;
80983;SDS011;73733;53.046;8.724;2023-11-18T11:39:08;18.45;;;8.75;;
80983;SDS011;73733;53.046;8.724;2023-11-18T11:41:36;13.07;;;7.60;;
80983;SDS011;73733;53.046;8.724;2023-11-18T11:44:02;14.48;;;9.00;;
80983;SDS011;73733;53.046;8.724;2023-11-18T11:46:31;14.20;;;8.02;;
80983;SDS011;73733;53.046;8.724;2023-11-18T11:49:02;14.75;;;9.38;;
80983;SDS011;73733;53.046;8.724;2023-11-18T11:51:47;14.65;;;7.88;;
80983;SDS011;73733;53.046;8.724;2023-11-18T11:54:17;12.50;;;7.60;;
80983;SDS011;73733;53.046;8.724;2023-11-18T11:56:46;12.35;;;7.00;;
80983;SDS011;73733;53.046;8.724;2023-11-18T11:59:17;13.55;;;7.32;;
80983;SDS011;73733;53.046;8.724;2023-11-18T12:02:00;12.13;;;7.15;;
80983;SDS011;73733;53.046;8.724;2023-11-18T12:04:31;11.68;;;6.38;;
80983;SDS011;73733;53.046;8.724;2023-11-18T12:06:57;14.30;;;7.90;;
80983;SDS011;73733;53.046;8.724;2023-11-18T12:09:23;14.20;;;8.07;;
80983;SDS011;73733;53.046;8.724;2023-11-18T12:11:57;12.48;;;7.38;;
80983;SDS011;73733;53.046;8.724;2023-11-18T12:14:24;9.48;;;6.50;;
80983;SDS011;73733;53.046;8.724;2023-11-18T12:17:02;14.02;;;9.02;;
80983;SDS011;73733;53.046;8.724;2023-11-18T12:19:45;12.02;;;7.03;;
80983;SDS011;73733;53.046;8.724;2023-11-18T12:22:20;12.05;;;7.25;;
80983;SDS011;73733;53.046;8.724;2023-11-18T12:32:57;11.75;;;6.35;;
80983;SDS011;73733;53.046;8.724;2023-11-18T12:47:04;8.48;;;5.82;;
80983;SDS011;73733;53.046;8.724;2023-11-18T12:49:42;9.63;;;5.85;;
80983;SDS011;73733;53.046;8.724;2023-11-18T12:52:09;7.97;;;5.45;;
80983;SDS011;73733;53.046;8.724;2023-11-18T12:54:36;11.43;;;6.22;;
80983;SDS011;73733;53.046;8.724;2023-11-18T12:57:08;7.57;;;5.40;;
80983;SDS011;73733;53.046;8.724;2023-11-18T12:59:35;13.05;;;5.55;;
80983;SDS011;73733;53.046;8.724;2023-11-18T13:02:01;9.70;;;6.28;;
80983;SDS011;73733;53.046;8.724;2023-11-18T13:04:29;9.43;;;5.45;;
80983;SDS011;73733;53.046;8.724;2023-11-18T13:06:55;8.80;;;5.53;;
80983;SDS011;73733;53.046;8.724;2023-11-18T13:09:22;8.75;;;5.25;;
80983;SDS011;73733;53.046;8.724;2023-11-18T13:11:55;9.57;;;4.72;;
80983;SDS011;73733;53.046;8.724;2023-11-18T13:14:22;7.63;;;5.78;;
80983;SDS011;73733;53.046;8.724;2023-11-18T13:16:50;8.20;;;4.50;;
80983;SDS011;73733;53.046;8.724;2023-11-18T13:19:25;10.30;;;5.70;;
80983;SDS011;73733;53.046;8.724;2023-11-18T13:24:21;16.90;;;10.52;;
80983;SDS011;73733;53.046;8.724;2023-11-18T13:26:46;11.80;;;6.05;;
80983;SDS011;73733;53.046;8.724;2023-11-18T13:29:11;10.00;;;5.17;;
80983;SDS011;73733;53.046;8.724;2023-11-18T13:31:37;8.75;;;4.97;;
80983;SDS011;73733;53.046;8.724;2023-11-18T13:34:03;9.55;;;5.68;;
80983;SDS011;73733;53.046;8.724;2023-11-18T13:36:29;7.38;;;3.97;;
80983;SDS011;73733;53.046;8.724;2023-11-18T13:38:55;9.88;;;4.90;;
80983;SDS011;73733;53.046;8.724;2023-11-18T13:41:29;10.77;;;5.18;;
80983;SDS011;73733;53.046;8.724;2023-11-18T13:46:59;9.05;;;4.75;;
80983;SDS011;73733;53.046;8.724;2023-11-18T13:52:31;8.95;;;4.85;;
80983;SDS011;73733;53.046;8.724;2023-11-18T13:54:57;7.50;;;5.38;;
80983;SDS011;73733;53.046;8.724;2023-11-18T13:57:24;8.45;;;5.07;;
80983;SDS011;73733;53.046;8.724;2023-11-18T13:59:50;10.27;;;5.15;;
80983;SDS011;73733;53.046;8.724;2023-11-18T14:02:16;8.05;;;4.93;;
80983;SDS011;73733;53.046;8.724;2023-11-18T14:04:42;10.77;;;4.88;;
80983;SDS011;73733;53.046;8.724;2023-11-18T14:07:14;8.98;;;4.50;;
80983;SDS011;73733;53.046;8.724;2023-11-18T14:09:42;9.45;;;4.55;;
80983;SDS011;73733;53.046;8.724;2023-11-18T14:12:08;8.73;;;4.63;;
80983;SDS011;73733;53.046;8.724;2023-11-18T14:14:37;7.88;;;4.22;;
80983;SDS011;73733;53.046;8.724;2023-11-18T14:17:03;8.02;;;4.05;;
80983;SDS011;73733;53.046;8.724;2023-11-18T14:19:32;11.13;;;5.25;;
80983;SDS011;73733;53.046;8.724;2023-11-18T14:22:00;9.30;;;5.28;;
80983;SDS011;73733;53.046;8.724;2023-11-18T14:24:25;7.60;;;4.35;;
80983;SDS011;73733;53.046;8.724;2023-11-18T14:26:54;9.15;;;4.15;;
80983;SDS011;73733;53.046;8.724;2023-11-18T14:29:19;7.75;;;5.13;;
80983;SDS011;73733;53.046;8.724;2023-11-18T14:31:45;8.73;;;4.00;;
80983;SDS011;73733;53.046;8.724;2023-11-18T14:34:10;7.18;;;4.13;;
80983;SDS011;73733;53.046;8.724;2023-11-18T14:36:36;7.63;;;4.53;;
80983;SDS011;73733;53.046;8.724;2023-11-18T14:39:04;7.75;;;4.35;;
80983;SDS011;73733;53.046;8.724;2023-11-18T14:41:32;6.53;;;3.50;;
80983;SDS011;73733;53.046;8.724;2023-11-18T14:44:05;7.53;;;4.10;;
80983;SDS011;73733;53.046;8.724;2023-11-18T14:46:32;7.93;;;4.28;;
80983;SDS011;73733;53.046;8.724;2023-11-18T14:49:07;9.15;;;4.70;;
80983;SDS011;73733;53.046;8.724;2023-11-18T14:51:34;8.00;;;4.25;;
80983;SDS011;73733;53.046;8.724;2023-11-18T14:54:04;9.35;;;3.88;;
80983;SDS011;73733;53.046;8.724;2023-11-18T14:56:33;7.82;;;4.60;;
80983;SDS011;73733;53.046;8.724;2023-11-18T14:59:04;7.25;;;3.97;;
80983;SDS011;73733;53.046;8.724;2023-11-18T15:01:41;7.13;;;4.50;;
80983;SDS011;73733;53.046;8.724;2023-11-18T15:04:10;8.25;;;4.35;;
80983;SDS011;73733;53.046;8.724;2023-11-18T15:06:39;6.80;;;4.22;;
80983;SDS011;73733;53.046;8.724;2023-11-18T15:09:06;9.73;;;4.93;;
80983;SDS011;73733;53.046;8.724;2023-11-18T15:11:35;7.53;;;3.97;;
80983;SDS011;73733;53.046;8.724;2023-11-18T15:14:06;6.15;;;3.58;;
80983;SDS011;73733;53.046;8.724;2023-11-18T15:16:50;8.30;;;3.55;;
80983;SDS011;73733;53.046;8.724;2023-11-18T15:19:34;7.70;;;4.07;;
80983;SDS011;73733;53.046;8.724;2023-11-18T15:21:59;7.43;;;3.60;;
80983;SDS011;73733;53.046;8.724;2023-11-18T15:24:27;7.60;;;3.67;;
80983;SDS011;73733;53.046;8.724;2023-11-18T15:26:57;7.80;;;4.13;;